Time;durP1;ratioP1;P1;durP2;ratioP2;P2;SDS_P1;SDS_P2;PMS_P1;PMS_P2;Temp;Humidity;BMP_temperature;BMP_pressure;BME280_temperature;BME280_humidity;BME280_pressure;Samples;Min_cycle;Max_cycle;Signal;HPM_P1;HPM_P2
2023/11/04 00:00:49;;;;;;;11.50;7.60;;;;;;;8.53;100.00;95760.45;110239;1241;71414;-69
2023/11/04 00:03:45;;;;;;;12.70;8.10;;;;;;;8.56;100.00;95765.41;110250;1241;69420;-68
2023/11/04 00:06:17;;;;;;;11.30;7.50;;;;;;;8.60;100.00;95775.77;110222;1241;69395;-67
2023/11/04 00:08:48;;;;;;;10.50;7.30;;;;;;;8.63;100.00;95762.95;110248;1241;59686;-67
2023/11/04 00:11:18;;;;;;;9.50;7.10;;;;;;;8.67;100.00;95766.41;110243;1241;59705;-67
2023/11/04 00:13:50;;;;;;;10.90;7.00;;;;;;;8.71;100.00;95777.80;110248;1241;70677;-67
2023/11/04 00:16:20;;;;;;;11.90;7.40;;;;;;;8.74;100.00;95765.50;110249;1240;68554;-69
2023/11/04 00:18:52;;;;;;;9.50;6.70;;;;;;;8.76;100.00;95754.55;110240;1240;68704;-68
2023/11/04 00:21:25;;;;;;;14.50;8.20;;;;;;;8.78;100.00;95742.86;110267;1241;59675;-68
2023/11/04 00:23:57;;;;;;;10.80;7.20;;;;;;;8.82;100.00;95746.85;110274;1239;59746;-68
2023/11/04 00:26:29;;;;;;;13.20;7.90;;;;;;;8.85;100.00;95748.44;110265;1241;71525;-68
2023/11/04 00:29:00;;;;;;;10.20;6.80;;;;;;;8.91;100.00;95758.90;110281;1240;69329;-68
2023/11/04 00:31:35;;;;;;;11.10;7.20;;;;;;;8.94;100.00;95759.27;110249;1240;68842;-69
2023/11/04 00:34:06;;;;;;;9.10;6.40;;;;;;;8.98;100.00;95760.51;110284;1241;59668;-68
2023/11/04 00:36:37;;;;;;;9.30;7.10;;;;;;;8.93;100.00;95758.54;110204;1242;59717;-68
2023/11/04 00:39:12;;;;;;;9.50;7.10;;;;;;;8.85;100.00;95765.97;110310;1241;70852;-68
2023/11/04 00:41:46;;;;;;;12.80;8.40;;;;;;;8.81;100.00;95773.55;110235;1241;69217;-67
2023/11/04 00:44:16;;;;;;;9.40;6.70;;;;;;;8.77;100.00;95771.11;110111;1240;69173;-69
2023/11/04 00:46:48;;;;;;;10.20;7.40;;;;;;;8.75;100.00;95767.67;110261;1239;59713;-69
2023/11/04 00:49:21;;;;;;;11.20;7.40;;;;;;;8.71;100.00;95760.08;110201;1242;59695;-69
2023/11/04 00:51:52;;;;;;;9.80;6.80;;;;;;;8.71;100.00;95754.88;110261;1241;69838;-69
2023/11/04 00:54:23;;;;;;;9.80;7.00;;;;;;;8.72;100.00;95750.35;110163;1242;69081;-68
2023/11/04 00:56:55;;;;;;;8.00;6.40;;;;;;;8.71;100.00;95747.19;110226;1241;69189;-68
2023/11/04 00:59:26;;;;;;;9.40;6.70;;;;;;;8.68;100.00;95736.66;110231;1241;59755;-68
2023/11/04 01:01:58;;;;;;;9.10;6.70;;;;;;;8.65;100.00;95725.42;110242;1241;59686;-68
2023/11/04 01:04:28;;;;;;;10.00;6.30;;;;;;;8.63;100.00;95718.33;110235;1239;71682;-69
2023/11/04 01:07:01;;;;;;;12.20;6.60;;;;;;;8.63;100.00;95707.41;110311;1240;68482;-68
2023/11/04 01:09:31;;;;;;;;;;;;;;;8.60;100.00;95697.96;110271;1240;68081;-69
2023/11/04 01:12:06;;;;;;;11.10;6.90;;;;;;;8.56;100.00;95698.49;110271;1241;59669;-68
2023/11/04 01:14:38;;;;;;;10.80;7.90;;;;;;;8.57;100.00;95699.64;110191;1240;59663;-68
2023/11/04 01:17:08;;;;;;;12.20;7.70;;;;;;;8.62;100.00;95690.33;110229;1241;71098;-68
2023/11/04 01:19:38;;;;;;;18.40;11.40;;;;;;;8.72;100.00;95695.69;110177;1242;68469;-68
2023/11/04 01:22:13;;;;;;;12.80;8.10;;;;;;;8.78;100.00;95701.76;110228;1241;69254;-68
2023/11/04 01:24:46;;;;;;;14.90;8.50;;;;;;;8.73;100.00;95697.84;110206;1240;59741;-67
2023/11/04 01:27:18;;;;;;;12.40;7.80;;;;;;;8.66;100.00;95699.65;110233;1241;59739;-67
2023/11/04 01:29:56;;;;;;;10.90;7.20;;;;;;;8.61;100.00;95704.78;110228;1240;71177;-69
2023/11/04 01:32:28;;;;;;;10.30;6.60;;;;;;;8.58;100.00;95701.48;110273;1239;68506;-68
2023/11/04 01:35:01;;;;;;;12.80;8.60;;;;;;;8.55;100.00;95689.94;110256;1239;69205;-68
2023/11/04 01:37:37;;;;;;;13.70;8.70;;;;;;;8.53;100.00;95687.66;110174;1244;59689;-68
2023/11/04 01:40:11;;;;;;;11.10;7.30;;;;;;;8.52;100.00;95682.08;110210;1241;59747;-68
2023/11/04 01:42:45;;;;;;;12.70;9.00;;;;;;;8.50;100.00;95668.19;110260;1241;71371;-68
2023/11/04 01:45:16;;;;;;;13.40;8.70;;;;;;;8.49;100.00;95671.45;110224;1241;68510;-68
2023/11/04 01:47:47;;;;;;;13.60;9.30;;;;;;;8.48;100.00;95671.17;110248;1241;69137;-68
2023/11/04 01:50:18;;;;;;;17.30;9.60;;;;;;;8.48;100.00;95662.45;110247;1239;59725;-69
2023/11/04 01:52:49;;;;;;;14.50;8.10;;;;;;;8.49;100.00;95653.48;110304;1241;59624;-68
2023/11/04 01:55:26;;;;;;;10.40;7.50;;;;;;;8.52;100.00;95650.31;110258;1241;70649;-68
2023/11/04 01:58:00;;;;;;;15.40;8.10;;;;;;;8.55;100.00;95643.59;110294;1241;69227;-68
2023/11/04 02:00:33;;;;;;;10.70;6.40;;;;;;;8.58;100.00;95652.84;110245;1241;69201;-69
2023/11/04 02:03:06;;;;;;;17.70;11.10;;;;;;;8.64;100.00;95673.11;110250;1241;59721;-68
2023/11/04 02:05:39;;;;;;;13.90;8.00;;;;;;;8.64;100.00;95677.42;110264;1239;59750;-67
2023/11/04 02:08:12;;;;;;;14.60;10.10;;;;;;;8.64;100.00;95678.67;110275;1241;70828;-68
2023/11/04 02:10:48;;;;;;;15.00;9.60;;;;;;;8.57;100.00;95678.29;110272;1240;69765;-68
2023/11/04 02:13:22;;;;;;;13.00;9.70;;;;;;;8.48;100.00;95677.37;110137;1239;69196;-68
2023/11/04 02:15:52;;;;;;;11.70;8.50;;;;;;;8.36;100.00;95671.02;110138;1243;59730;-68
2023/11/04 02:18:24;;;;;;;9.70;7.70;;;;;;;8.23;100.00;95673.90;110265;1240;59638;-68
2023/11/04 02:21:01;;;;;;;11.50;8.10;;;;;;;8.15;100.00;95665.27;110238;1241;71125;-67
2023/11/04 02:23:33;;;;;;;11.70;8.40;;;;;;;8.08;100.00;95668.64;110264;1241;69148;-69
2023/11/04 02:26:06;;;;;;;14.60;9.60;;;;;;;8.01;100.00;95660.63;110272;1241;69657;-68
2023/11/04 02:28:39;;;;;;;14.30;9.60;;;;;;;7.98;100.00;95655.52;110263;1240;59721;-68
2023/11/04 02:31:20;;;;;;;11.30;7.80;;;;;;;8.01;100.00;95671.05;110276;1241;59802;-69
2023/11/04 02:33:53;;;;;;;11.40;7.20;;;;;;;8.10;100.00;95666.44;110261;1241;70714;-67
2023/11/04 02:36:35;;;;;;;10.40;7.70;;;;;;;8.15;100.00;95662.98;110264;1248;69303;-68
2023/11/04 02:39:08;;;;;;;9.30;6.80;;;;;;;8.19;100.00;95661.43;110311;1241;69464;-68
2023/11/04 02:41:40;;;;;;;11.40;7.10;;;;;;;8.20;100.00;95666.90;110258;1239;59735;-68
2023/11/04 02:44:12;;;;;;;12.30;7.70;;;;;;;8.21;100.00;95669.61;110261;1240;59696;-67
2023/11/04 02:46:45;;;;;;;11.90;9.00;;;;;;;8.17;100.00;95673.20;110279;1240;71436;-68
2023/11/04 02:49:17;;;;;;;15.10;9.40;;;;;;;8.13;100.00;95673.77;110211;1243;68262;-68
2023/11/04 02:51:52;;;;;;;12.70;7.70;;;;;;;8.08;100.00;95656.49;110248;1247;68614;-67
2023/11/04 02:54:39;;;;;;;12.80;8.20;;;;;;;8.09;100.00;95651.75;110255;1240;59706;-69
2023/11/04 02:57:15;;;;;;;14.40;8.20;;;;;;;8.09;100.00;95643.05;110278;1241;59692;-68
2023/11/04 02:59:49;;;;;;;12.60;8.60;;;;;;;8.10;100.00;95632.70;110292;1241;70692;-69
2023/11/04 03:02:22;;;;;;;11.00;7.60;;;;;;;8.11;100.00;95629.51;110248;1241;69240;-68
2023/11/04 03:04:54;;;;;;;12.40;7.90;;;;;;;8.11;100.00;95626.77;110289;1240;69251;-68
2023/11/04 03:07:26;;;;;;;13.40;10.00;;;;;;;8.10;100.00;95622.30;110244;1240;59669;-69
2023/11/04 03:09:58;;;;;;;11.30;8.40;;;;;;;8.14;100.00;95618.35;110329;1239;59720;-68
2023/11/04 03:12:29;;;;;;;11.30;7.30;;;;;;;8.15;100.00;95612.00;110287;1241;71413;-67
2023/11/04 03:14:59;;;;;;;11.70;7.90;;;;;;;8.23;100.00;95613.67;110149;1241;69280;-68
2023/11/04 03:17:31;;;;;;;10.40;7.50;;;;;;;8.29;100.00;95611.77;110246;1241;69976;-68
2023/11/04 03:20:05;;;;;;;13.50;8.40;;;;;;;8.31;100.00;95607.55;110262;1241;59678;-69
2023/11/04 03:22:36;;;;;;;13.10;9.40;;;;;;;8.31;100.00;95602.72;110234;1241;59676;-68
2023/11/04 03:25:06;;;;;;;14.30;8.70;;;;;;;8.30;100.00;95602.64;110225;1241;71496;-68
2023/11/04 03:27:41;;;;;;;12.30;8.20;;;;;;;8.30;100.00;95603.34;110252;1241;69262;-68
2023/11/04 03:30:14;;;;;;;13.20;7.50;;;;;;;8.31;100.00;95606.20;110243;1240;69288;-68
2023/11/04 03:32:47;;;;;;;10.60;7.80;;;;;;;8.33;100.00;95607.77;110238;1241;59676;-69
2023/11/04 03:35:20;;;;;;;10.80;7.30;;;;;;;8.33;100.00;95595.71;110243;1241;59675;-69
2023/11/04 03:37:51;;;;;;;12.50;8.10;;;;;;;8.36;100.00;95579.00;110280;1241;71219;-69
2023/11/04 03:40:22;;;;;;;12.70;8.50;;;;;;;8.37;100.00;95571.64;110260;1241;69218;-68
2023/11/04 03:42:58;;;;;;;9.50;6.60;;;;;;;8.41;100.00;95578.20;110223;1239;68366;-68
2023/11/04 03:45:28;;;;;;;11.10;7.90;;;;;;;8.36;100.00;95580.02;110260;1241;59685;-67
2023/11/04 03:47:58;;;;;;;9.90;6.50;;;;;;;8.33;100.00;95581.68;110253;1241;59629;-68
2023/11/04 03:50:29;;;;;;;9.90;6.50;;;;;;;8.32;100.00;95582.60;110235;1241;71520;-69
2023/11/04 03:53:00;;;;;;;12.20;9.40;;;;;;;8.36;100.00;95581.61;110269;1240;68584;-68
2023/11/04 03:55:31;;;;;;;10.50;7.20;;;;;;;8.34;100.00;95577.11;110215;1241;69457;-69
2023/11/04 03:58:03;;;;;;;8.90;6.10;;;;;;;8.49;100.00;95571.59;110228;1242;59792;-66
2023/11/04 04:00:34;;;;;;;8.50;6.10;;;;;;;8.37;100.00;95564.01;110267;1240;59735;-69
2023/11/04 04:03:05;;;;;;;8.50;5.80;;;;;;;8.33;100.00;95562.83;110283;1241;71225;-68
2023/11/04 04:05:35;;;;;;;10.10;6.50;;;;;;;8.31;100.00;95558.11;110298;1240;68429;-68
2023/11/04 04:08:07;;;;;;;11.20;6.90;;;;;;;8.46;100.00;95553.65;110265;1241;69296;-66
2023/11/04 04:10:37;;;;;;;9.00;6.50;;;;;;;8.50;100.00;95555.70;110287;1241;59664;-67
2023/11/04 04:13:08;;;;;;;8.50;5.90;;;;;;;8.49;100.00;95559.75;110284;1241;59689;-68
2023/11/04 04:15:39;;;;;;;10.30;6.90;;;;;;;8.50;100.00;95560.54;110215;1240;71229;-70
2023/11/04 04:18:10;;;;;;;10.30;7.50;;;;;;;8.46;100.00;95552.77;110274;1241;69291;-69
2023/11/04 04:20:44;;;;;;;9.80;6.90;;;;;;;8.38;100.00;95543.91;110207;1241;69409;-69
2023/11/04 04:23:14;;;;;;;8.60;6.30;;;;;;;8.32;100.00;95538.98;110276;1241;59669;-68
2023/11/04 04:25:44;;;;;;;8.80;6.00;;;;;;;8.25;100.00;95544.63;110298;1241;59672;-68
2023/11/04 04:28:13;;;;;;;8.80;6.20;;;;;;;8.18;100.00;95548.55;110258;1241;71415;-68
2023/11/04 04:30:44;;;;;;;7.10;5.10;;;;;;;8.14;100.00;95553.59;110249;1241;69084;-68
2023/11/04 04:33:14;;;;;;;9.30;6.10;;;;;;;8.11;100.00;95559.77;110234;1241;69284;-68
2023/11/04 04:35:44;;;;;;;16.80;6.00;;;;;;;8.09;100.00;95566.57;110219;1240;59689;-68
2023/11/04 04:38:14;;;;;;;14.50;6.70;;;;;;;8.04;100.00;95567.38;110214;1241;59694;-68
2023/11/04 04:40:44;;;;;;;86.40;15.10;;;;;;;7.95;100.00;95564.55;110270;1241;71244;-67
2023/11/04 04:43:15;;;;;;;21.00;9.20;;;;;;;7.84;100.00;95562.98;110225;1241;69696;-68
2023/11/04 04:45:45;;;;;;;10.80;7.70;;;;;;;7.76;100.00;95559.89;110209;1240;68595;-69
2023/11/04 04:48:16;;;;;;;10.20;7.10;;;;;;;7.73;100.00;95554.27;110268;1241;59818;-67
2023/11/04 04:50:46;;;;;;;11.10;7.50;;;;;;;7.70;100.00;95553.16;110255;1241;59675;-68
2023/11/04 04:53:17;;;;;;;11.30;6.80;;;;;;;7.69;100.00;95552.35;110258;1239;70660;-67
2023/11/04 04:55:47;;;;;;;8.30;5.90;;;;;;;7.70;100.00;95557.55;110243;1241;69153;-69
2023/11/04 04:58:18;;;;;;;9.00;6.10;;;;;;;7.70;100.00;95564.28;110243;1241;69259;-67
2023/11/04 05:00:50;;;;;;;10.30;7.10;;;;;;;7.69;100.00;95560.15;110245;1239;59695;-68
2023/11/04 05:03:20;;;;;;;8.10;5.90;;;;;;;7.68;100.00;95550.20;110273;1239;59729;-68
2023/11/04 05:05:51;;;;;;;13.60;5.80;;;;;;;7.67;100.00;95550.80;110275;1241;70619;-69
2023/11/04 05:08:21;;;;;;;10.60;7.50;;;;;;;7.65;100.00;95543.53;110304;1239;69179;-68
2023/11/04 05:10:51;;;;;;;8.60;5.50;;;;;;;7.62;100.00;95538.73;110292;1241;69279;-68
2023/11/04 05:13:22;;;;;;;7.00;4.90;;;;;;;7.60;100.00;95536.73;110291;1241;60092;-67
2023/11/04 05:15:51;;;;;;;;;;;;;;;7.59;100.00;95539.69;110310;1240;59689;-67
2023/11/04 05:18:21;;;;;;;7.30;5.20;;;;;;;7.59;100.00;95542.84;110249;1241;71395;-66
2023/11/04 05:20:51;;;;;;;7.50;4.90;;;;;;;7.60;100.00;95536.90;110302;1241;70061;-67
2023/11/04 05:23:20;;;;;;;7.00;5.40;;;;;;;7.62;100.00;95532.69;110256;1241;68705;-67
2023/11/04 05:25:50;;;;;;;8.30;6.10;;;;;;;7.64;100.00;95530.13;110306;1240;59744;-69
2023/11/04 05:28:19;;;;;;;8.80;5.70;;;;;;;7.60;100.00;95528.87;110294;1241;59694;-69
2023/11/04 05:30:49;;;;;;;7.60;5.30;;;;;;;7.61;100.00;95550.45;110356;1240;71900;-67
2023/11/04 05:33:22;;;;;;;9.80;6.80;;;;;;;7.74;100.00;95558.33;110298;1240;69722;-67
2023/11/04 05:35:53;;;;;;;10.40;6.80;;;;;;;7.79;100.00;95561.50;110251;1241;67578;-67
2023/11/04 05:38:23;;;;;;;10.00;6.00;;;;;;;7.90;100.00;95581.34;110200;1240;59748;-68
2023/11/04 05:40:54;;;;;;;18.30;12.00;;;;;;;7.99;100.00;95596.63;110306;1241;59740;-68
2023/11/04 05:43:25;;;;;;;127.30;20.60;;;;;;;7.91;100.00;95600.31;110318;1240;71286;-68
2023/11/04 05:45:55;;;;;;;125.60;17.80;;;;;;;7.77;100.00;95601.80;110282;1240;67642;-68
2023/11/04 05:48:26;;;;;;;166.60;17.90;;;;;;;7.55;100.00;95605.92;110307;1241;69361;-68
2023/11/04 05:50:56;;;;;;;12.20;7.50;;;;;;;7.44;100.00;95606.77;110286;1241;59737;-69
2023/11/04 05:53:25;;;;;;;11.00;7.30;;;;;;;7.43;100.00;95607.95;110287;1241;60057;-67
2023/11/04 05:55:57;;;;;;;8.30;6.20;;;;;;;7.51;100.00;95602.04;110245;1248;71435;-66
2023/11/04 05:58:26;;;;;;;11.20;7.50;;;;;;;7.63;100.00;95604.53;110294;1242;69603;-67
2023/11/04 06:00:55;;;;;;;11.90;7.10;;;;;;;7.76;100.00;95605.48;110226;1241;69447;-67
2023/11/04 06:03:25;;;;;;;11.20;8.10;;;;;;;7.90;100.00;95598.87;110228;1241;59686;-66
2023/11/04 06:05:56;;;;;;;18.40;12.60;;;;;;;8.05;100.00;95587.39;110303;1241;59735;-67
2023/11/04 06:08:25;;;;;;;20.50;12.40;;;;;;;8.22;100.00;95584.99;110257;1241;69583;-67
2023/11/04 06:10:55;;;;;;;;;;;;;;;8.43;100.00;95598.81;110221;1241;69250;-67
2023/11/04 06:13:24;;;;;;;28.30;13.70;;;;;;;8.60;100.00;95605.27;110284;1241;69203;-68
2023/11/04 06:15:53;;;;;;;71.20;19.30;;;;;;;8.68;100.00;95599.99;110285;1241;59722;-68
2023/11/04 06:18:23;;;;;;;20.60;13.50;;;;;;;8.70;100.00;95589.38;110243;1241;59639;-66
2023/11/04 06:20:53;;;;;;;18.70;13.40;;;;;;;8.77;100.00;95588.20;110272;1241;71377;-67
2023/11/04 06:23:22;;;;;;;16.20;11.70;;;;;;;8.81;100.00;95592.15;110271;1242;69301;-67
2023/11/04 06:25:52;;;;;;;15.80;11.90;;;;;;;8.88;100.00;95593.40;110259;1241;68194;-69
2023/11/04 06:28:22;;;;;;;16.20;12.50;;;;;;;8.91;100.00;95593.82;110260;1240;59722;-69
2023/11/04 06:30:52;;;;;;;15.80;11.20;;;;;;;8.94;100.00;95593.77;110412;1241;59685;-70
2023/11/04 06:33:22;;;;;;;16.70;11.90;;;;;;;8.99;100.00;95584.77;110258;1241;69725;-69
2023/11/04 06:35:52;;;;;;;18.70;15.50;;;;;;;9.02;100.00;95579.61;110225;1240;68316;-69
2023/11/04 06:38:21;;;;;;;17.20;13.10;;;;;;;9.04;100.00;95585.70;110246;1241;69292;-69
2023/11/04 06:40:51;;;;;;;15.60;11.90;;;;;;;9.05;100.00;95587.11;110245;1241;59687;-69
2023/11/04 06:43:19;;;;;;;13.70;9.90;;;;;;;9.10;100.00;95595.31;110272;1241;59682;-69
2023/11/04 06:45:49;;;;;;;13.40;11.00;;;;;;;9.17;100.00;95593.10;110231;1241;71862;-69
2023/11/04 06:48:18;;;;;;;14.90;11.80;;;;;;;9.24;100.00;95598.55;110317;1241;69236;-70
2023/11/04 06:50:47;;;;;;;16.00;13.20;;;;;;;9.32;100.00;95598.23;110243;1241;69341;-70
2023/11/04 06:53:17;;;;;;;14.70;11.20;;;;;;;9.39;100.00;95584.49;110330;1240;59817;-67
2023/11/04 06:55:47;;;;;;;12.50;9.80;;;;;;;9.47;100.00;95578.17;110324;1241;59668;-66
2023/11/04 06:58:17;;;;;;;12.70;9.70;;;;;;;9.56;100.00;95576.60;110271;1241;70843;-66
2023/11/04 07:00:46;;;;;;;13.30;9.80;;;;;;;9.63;100.00;95571.92;110246;1241;69806;-67
2023/11/04 07:03:16;;;;;;;14.90;12.40;;;;;;;9.68;100.00;95567.23;110259;1241;69250;-66
2023/11/04 07:05:48;;;;;;;13.40;10.50;;;;;;;9.72;100.00;95564.83;110240;1241;59746;-68
2023/11/04 07:08:17;;;;;;;10.40;8.60;;;;;;;9.76;100.00;95565.08;110257;1241;59743;-67
2023/11/04 07:10:46;;;;;;;12.10;9.20;;;;;;;9.85;100.00;95563.65;110249;1241;71927;-66
2023/11/04 07:13:16;;;;;;;10.40;8.60;;;;;;;9.93;100.00;95569.31;110244;1241;69737;-67
2023/11/04 07:15:45;;;;;;;10.40;7.70;;;;;;;10.00;100.00;95578.21;110236;1241;69178;-67
2023/11/04 07:18:17;;;;;;;9.10;7.20;;;;;;;10.08;100.00;95591.97;110256;1241;59734;-67
2023/11/04 07:20:47;;;;;;;9.20;6.20;;;;;;;10.19;100.00;95599.13;110307;1241;59683;-67
2023/11/04 07:23:19;;;;;;;8.20;6.70;;;;;;;10.27;100.00;95596.89;110290;1240;70636;-67
2023/11/04 07:25:48;;;;;;;10.80;8.60;;;;;;;10.37;100.00;95592.98;110251;1242;69644;-67
2023/11/04 07:28:17;;;;;;;9.00;7.60;;;;;;;10.42;100.00;95588.67;110232;1241;69204;-67
2023/11/04 07:30:46;;;;;;;8.30;7.30;;;;;;;10.47;100.00;95592.67;110305;1241;59710;-67
2023/11/04 07:33:16;;;;;;;9.50;8.00;;;;;;;10.51;100.00;95602.73;110186;1242;59715;-68
2023/11/04 07:35:46;;;;;;;10.20;8.40;;;;;;;10.58;100.00;95612.81;110246;1241;71874;-67
2023/11/04 07:38:16;;;;;;;10.70;8.60;;;;;;;10.67;100.00;95621.56;110323;1242;69291;-67
2023/11/04 07:40:46;;;;;;;11.80;8.90;;;;;;;10.71;100.00;95612.68;110307;1243;68536;-68
2023/11/04 07:43:16;;;;;;;11.50;8.50;;;;;;;10.76;100.00;95605.05;110340;1241;59753;-67
2023/11/04 07:45:46;;;;;;;13.00;10.50;;;;;;;10.82;100.00;95601.11;110372;1241;59695;-67
2023/11/04 07:48:16;;;;;;;15.80;12.50;;;;;;;10.82;100.00;95606.73;110387;1240;71480;-68
2023/11/04 07:50:48;;;;;;;16.50;13.90;;;;;;;10.81;100.00;95602.27;110406;1242;69848;-67
2023/11/04 07:53:18;;;;;;;16.90;14.40;;;;;;;10.81;100.00;95597.25;110511;1240;69094;-67
2023/11/04 07:55:48;;;;;;;16.00;13.50;;;;;;;10.76;100.00;95599.13;110691;1241;59643;-68
2023/11/04 07:58:18;;;;;;;16.70;14.20;;;;;;;10.81;100.00;95596.17;110823;1241;59615;-67
2023/11/04 08:00:49;;;;;;;15.80;13.00;;;;;;;10.86;100.00;95600.38;110752;1241;71021;-68
2023/11/04 08:03:19;;;;;;;17.20;13.10;;;;;;;10.89;100.00;95602.64;110336;1240;68441;-69
2023/11/04 08:05:48;;;;;;;15.30;13.10;;;;;;;10.89;100.00;95606.17;110329;1241;69316;-67
2023/11/04 08:08:19;;;;;;;16.90;14.30;;;;;;;10.88;100.00;95597.42;110351;1239;59671;-69
2023/11/04 08:10:48;;;;;;;19.20;15.60;;;;;;;10.85;100.00;95586.52;110361;1241;59678;-68
2023/11/04 08:13:19;;;;;;;17.40;14.00;;;;;;;10.82;100.00;95576.08;110322;1241;71360;-66
2023/11/04 08:15:49;;;;;;;16.90;14.00;;;;;;;10.82;100.00;95563.37;110277;1241;69076;-67
2023/11/04 08:18:18;;;;;;;17.90;14.70;;;;;;;10.85;100.00;95554.66;110234;1242;69901;-67
2023/11/04 08:20:47;;;;;;;17.30;14.00;;;;;;;10.87;100.00;95545.17;110259;1241;59722;-65
2023/11/04 08:23:16;;;;;;;16.10;13.20;;;;;;;10.91;100.00;95538.35;110247;1241;59688;-66
2023/11/04 08:25:45;;;;;;;15.40;12.70;;;;;;;10.94;100.00;95533.59;110245;1239;71716;-66
2023/11/04 08:28:14;;;;;;;16.40;13.30;;;;;;;10.99;100.00;95526.23;110258;1241;68319;-66
2023/11/04 08:30:43;;;;;;;27.20;21.50;;;;;;;11.03;100.00;95518.77;110250;1241;69169;-65
2023/11/04 08:33:14;;;;;;;24.20;19.50;;;;;;;11.05;100.00;95500.80;110249;1241;59686;-65
2023/11/04 08:35:43;;;;;;;25.30;20.30;;;;;;;11.08;100.00;95494.39;110266;1241;59737;-66
2023/11/04 08:38:13;;;;;;;26.90;19.00;;;;;;;11.10;100.00;95488.36;110224;1241;70916;-66
2023/11/04 08:40:42;;;;;;;23.30;16.90;;;;;;;11.15;100.00;95491.54;110226;1240;68533;-65
2023/11/04 08:43:11;;;;;;;21.20;15.10;;;;;;;11.20;100.00;95491.58;110273;1241;69358;-65
2023/11/04 08:45:40;;;;;;;22.10;18.00;;;;;;;11.25;100.00;95499.55;110250;1241;59688;-65
2023/11/04 08:48:10;;;;;;;17.30;13.40;;;;;;;11.29;100.00;95510.67;110310;1241;59679;-65
2023/11/04 08:50:39;;;;;;;16.70;12.80;;;;;;;11.33;100.00;95519.84;110252;1241;71780;-65
2023/11/04 08:53:08;;;;;;;15.40;11.60;;;;;;;11.37;100.00;95521.95;110233;1241;69725;-66
2023/11/04 08:55:37;;;;;;;15.20;11.50;;;;;;;11.40;100.00;95522.33;110237;1240;69869;-66
2023/11/04 08:58:07;;;;;;;13.50;10.10;;;;;;;11.43;100.00;95523.46;110219;1242;59691;-65
2023/11/04 09:00:37;;;;;;;15.50;11.70;;;;;;;11.30;100.00;95518.15;110273;1241;59676;-65
2023/11/04 09:03:07;;;;;;;15.70;12.00;;;;;;;11.32;100.00;95518.39;110298;1241;71956;-65
2023/11/04 09:05:37;;;;;;;14.20;12.00;;;;;;;11.35;100.00;95514.48;110336;1241;68578;-66
2023/11/04 09:08:06;;;;;;;13.60;11.20;;;;;;;11.46;100.00;95510.94;110118;1240;68591;-66
2023/11/04 09:10:35;;;;;;;13.90;10.90;;;;;;;11.51;100.00;95506.40;110135;1243;59675;-65
2023/11/04 09:13:06;;;;;;;14.00;10.70;;;;;;;11.57;100.00;95503.10;110170;1244;59747;-65
2023/11/04 09:15:36;;;;;;;13.30;11.80;;;;;;;11.67;100.00;95510.07;110142;1242;71052;-64
2023/11/04 09:18:06;;;;;;;10.90;8.50;;;;;;;11.91;100.00;95512.52;110117;1240;67596;-64
2023/11/04 09:20:36;;;;;;;10.50;7.40;;;;;;;11.92;100.00;95506.73;109630;1242;685712;-65
2023/11/04 09:23:05;;;;;;;9.50;7.90;;;;;;;12.01;100.00;95513.20;110099;1243;59726;-65
2023/11/04 09:25:35;;;;;;;9.20;7.20;;;;;;;12.09;100.00;95516.20;110148;1245;59632;-65
2023/11/04 09:28:04;;;;;;;11.90;9.10;;;;;;;12.17;100.00;95517.59;110204;1240;71454;-66
2023/11/04 09:30:34;;;;;;;12.50;9.70;;;;;;;12.15;100.00;95511.30;110170;1242;68537;-67
2023/11/04 09:33:05;;;;;;;14.30;10.60;;;;;;;12.14;100.00;95506.20;110161;1240;69316;-65
2023/11/04 09:35:34;;;;;;;14.50;10.10;;;;;;;12.06;100.00;95509.56;110162;1240;59658;-65
2023/11/04 09:38:04;;;;;;;13.20;11.40;;;;;;;12.04;100.00;95515.39;110172;1240;59621;-66
2023/11/04 09:40:33;;;;;;;16.80;13.40;;;;;;;11.98;100.00;95511.10;110168;1242;71978;-66
2023/11/04 09:43:04;;;;;;;12.50;11.00;;;;;;;11.93;100.00;95500.80;110149;1241;69257;-66
2023/11/04 09:45:34;;;;;;;15.80;12.20;;;;;;;11.90;100.00;95484.98;110111;1244;69696;-65
2023/11/04 09:48:04;;;;;;;14.30;11.10;;;;;;;11.85;100.00;95472.73;110158;1241;59702;-64
2023/11/04 09:50:33;;;;;;;13.30;10.50;;;;;;;11.81;100.00;95471.02;110187;1242;59675;-64
2023/11/04 09:53:11;;;;;;;14.30;12.00;;;;;;;11.82;100.00;95471.12;110150;1240;72097;-65
2023/11/04 09:55:41;;;;;;;14.80;11.20;;;;;;;11.81;100.00;95471.97;110143;1242;69836;-65
2023/11/04 09:58:12;;;;;;;15.70;12.80;;;;;;;11.75;100.00;95474.63;110168;1243;68551;-65
2023/11/04 10:00:46;;;;;;;18.80;15.90;;;;;;;11.73;100.00;95474.46;110139;1245;59805;-65
2023/11/04 10:03:16;;;;;;;18.50;14.70;;;;;;;11.72;100.00;95463.96;110160;1244;59679;-66
2023/11/04 10:05:46;;;;;;;17.80;14.90;;;;;;;11.68;100.00;95461.93;110205;1242;72005;-66
2023/11/04 10:08:15;;;;;;;;;;;;;;;11.67;100.00;95464.45;110150;1243;69456;-65
2023/11/04 10:10:44;;;;;;;20.70;15.70;;;;;;;11.66;100.00;95463.55;110136;1242;68544;-66
2023/11/04 10:13:14;;;;;;;28.30;20.90;;;;;;;11.65;100.00;95463.98;110162;1240;59694;-66
2023/11/04 10:15:43;;;;;;;21.60;18.10;;;;;;;11.67;100.00;95460.46;110154;1243;59732;-66
2023/11/04 10:18:15;;;;;;;20.70;17.70;;;;;;;11.70;100.00;95456.02;110146;1243;71359;-66
2023/11/04 10:20:44;;;;;;;27.00;21.30;;;;;;;11.75;100.00;95450.81;110110;1242;68208;-66
2023/11/04 10:23:14;;;;;;;19.20;15.60;;;;;;;11.79;100.00;95449.50;110115;1242;69315;-66
2023/11/04 10:25:43;;;;;;;20.00;15.20;;;;;;;11.82;100.00;95445.14;110163;1243;59668;-65
2023/11/04 10:28:12;;;;;;;15.70;13.80;;;;;;;11.86;100.00;95438.39;110169;1242;59669;-66
2023/11/04 10:30:41;;;;;;;15.10;12.20;;;;;;;11.92;100.00;95433.60;110176;1240;70660;-65
2023/11/04 10:33:13;;;;;;;15.10;13.20;;;;;;;11.97;100.00;95428.42;110180;1243;69844;-64
2023/11/04 10:35:45;;;;;;;13.30;11.20;;;;;;;12.03;100.00;95427.64;110198;1243;69736;-65
2023/11/04 10:38:17;;;;;;;13.40;12.00;;;;;;;12.10;100.00;95421.94;110190;1243;59679;-65
2023/11/04 10:40:49;;;;;;;14.50;12.90;;;;;;;12.19;100.00;95417.50;110180;1244;59684;-66
2023/11/04 10:43:23;;;;;;;13.70;11.90;;;;;;;12.23;100.00;95410.92;110153;1243;71215;-65
2023/11/04 10:46:05;;;;;;;13.90;10.80;;;;;;;12.31;100.00;95398.05;110141;1240;69321;-65
2023/11/04 10:49:00;;;;;;;12.10;9.60;;;;;;;12.38;100.00;95400.41;110126;1240;68532;-65
2023/11/04 10:51:40;;;;;;;11.20;10.00;;;;;;;12.45;100.00;95394.00;110160;1240;59731;-65
2023/11/04 10:54:22;;;;;;;12.20;9.60;;;;;;;12.52;100.00;95387.27;110160;1243;59700;-65
2023/11/04 10:57:10;;;;;;;11.10;9.10;;;;;;;12.56;100.00;95386.67;110135;1242;71990;-66
2023/11/04 10:59:46;;;;;;;11.50;8.70;;;;;;;12.62;100.00;95380.54;110146;1242;68300;-66
2023/11/04 11:02:17;;;;;;;11.50;9.50;;;;;;;12.67;100.00;95379.59;110088;1243;69658;-66
2023/11/04 11:04:50;;;;;;;10.90;8.90;;;;;;;12.73;100.00;95372.98;110164;1242;59714;-66
2023/11/04 11:07:21;;;;;;;13.90;11.20;;;;;;;12.78;100.00;95374.89;110179;1244;59659;-66
2023/11/04 11:09:51;;;;;;;;;;;;;;;12.82;100.00;95367.30;110140;1242;71692;-66
2023/11/04 11:12:24;;;;;;;10.80;8.60;;;;;;;12.84;100.00;95357.02;110141;1242;69802;-67
2023/11/04 11:14:54;;;;;;;11.20;9.10;;;;;;;12.89;100.00;95356.85;110159;1241;69203;-66
2023/11/04 11:17:33;;;;;;;10.60;8.20;;;;;;;12.95;100.00;95353.84;110099;1240;59668;-66
2023/11/04 11:20:03;;;;;;;9.80;8.20;;;;;;;13.03;100.00;95351.72;110133;1243;59667;-66
2023/11/04 11:22:34;;;;;;;10.50;7.70;;;;;;;13.13;100.00;95347.29;110144;1244;70927;-66
2023/11/04 11:25:03;;;;;;;11.30;9.00;;;;;;;13.17;100.00;95338.58;110160;1243;69465;-67
2023/11/04 11:27:43;;;;;;;11.10;8.40;;;;;;;13.22;100.00;95338.20;110135;1244;69360;-66
2023/11/04 11:30:13;;;;;;;;;;;;;;;13.28;100.00;95334.55;110158;1242;59746;-67
2023/11/04 11:32:42;;;;;;;12.80;9.90;;;;;;;13.30;100.00;95331.55;110157;1242;60078;-66